Terminal Aerodrome Forecast
Issued by NWS Des Moines, IA

Home | Current Version | Previous Version | Text Only | Print | Product List | Glossary On
Versions: 1 2 3 4 5 6 7 8 9 10 11 12 13 14 15 16 17 18 19 20 21 22 23 24 25 26 27 28 29 30 31 32 33 34 35 36 37 38 39 40 41 42 43 44 45 46 47 48 49 50
097
FTUS43 KDMX 161445 AAC
TAFALO
TAF AMD
KALO 161445Z 1615/1712 12008KT P6SM SCT006
     FM162000 13012KT P6SM VCTS OVC070CB
     FM170500 18008KT P6SM OVC080
     FM170900 23010G17KT P6SM OVC015=

USA.gov is the U.S. government's official web portal to all federal, state and local government web resources and services.